Time;durP1;ratioP1;P1;durP2;ratioP2;P2;SDS_P1;SDS_P2;PMS_P1;PMS_P2;Temp;Humidity;BMP_temperature;BMP_pressure;BME280_temperature;BME280_humidity;BME280_pressure;Samples;Min_cycle;Max_cycle;Signal;HPM_P1;HPM_P2
2021/12/16 00:35:42;;;;;;;9.93;3.83;;;7.40;99.90;;;;;;20694970;28;20719;-43
2021/12/16 00:56:06;;;;;;;9.82;4.20;;;7.30;99.90;;;;;;20672462;28;21892;-43
2021/12/16 01:57:44;;;;;;;9.80;3.65;;;7.30;99.90;;;;;;20692032;28;20430;-43
2021/12/16 02:08:12;;;;;;;10.02;2.97;;;7.40;99.90;;;;;;20693545;28;20044;-43
2021/12/16 02:28:45;;;;;;;6.07;3.13;;;7.40;99.90;;;;;;20686939;28;20611;-43
2021/12/16 02:38:49;;;;;;;7.18;2.47;;;7.40;99.90;;;;;;20717250;28;20045;-43
2021/12/16 02:48:50;;;;;;;8.10;2.67;;;7.30;99.90;;;;;;20683506;28;20683;-43
2021/12/16 02:58:55;;;;;;;7.63;3.38;;;7.20;99.90;;;;;;20684385;28;20048;-43
2021/12/16 03:08:57;;;;;;;9.63;2.97;;;7.20;99.90;;;;;;20682070;28;20045;-43
2021/12/16 03:19:27;;;;;;;8.77;3.38;;;7.20;99.90;;;;;;20704687;28;20091;-43
2021/12/16 03:39:48;;;;;;;9.10;3.45;;;7.00;99.90;;;;;;20673329;28;20137;-43
2021/12/16 03:49:50;;;;;;;6.75;3.60;;;6.90;99.90;;;;;;20671803;28;21529;-43
2021/12/16 03:59:52;;;;;;;5.85;2.53;;;6.80;99.90;;;;;;20713348;28;20037;-43
2021/12/16 04:09:54;;;;;;;9.57;2.83;;;6.70;99.90;;;;;;20735211;28;20049;-43
2021/12/16 04:19:56;;;;;;;8.43;2.08;;;6.50;99.90;;;;;;20736343;28;20041;-43
2021/12/16 04:29:57;;;;;;;4.03;2.15;;;6.40;99.90;;;;;;20734922;28;20037;-43
2021/12/16 04:40:00;;;;;;;4.18;1.80;;;6.40;99.90;;;;;;20735762;28;20513;-43
2021/12/16 04:50:02;;;;;;;5.57;1.77;;;6.20;99.90;;;;;;20735707;28;20038;-43
2021/12/16 05:00:09;;;;;;;12.02;2.30;;;6.10;99.90;;;;;;20732345;28;20313;-43
2021/12/16 05:10:13;;;;;;;9.38;1.90;;;6.00;99.90;;;;;;20735523;28;20489;-43
2021/12/16 05:20:24;;;;;;;4.60;2.10;;;5.90;99.90;;;;;;20720237;28;20037;-43
2021/12/16 05:30:26;;;;;;;4.93;2.05;;;5.70;99.90;;;;;;20732825;28;20041;-43
2021/12/16 05:40:28;;;;;;;5.13;1.65;;;5.70;99.90;;;;;;20735200;28;20953;-43
2021/12/16 05:50:33;;;;;;;3.58;1.92;;;5.60;99.90;;;;;;20735328;28;20514;-43
2021/12/16 06:00:38;;;;;;;5.10;1.95;;;5.50;99.90;;;;;;20733955;28;20034;-43
2021/12/16 06:11:28;;;;;;;4.15;1.75;;;5.40;99.90;;;;;;20731996;28;20056;-44
2021/12/16 06:31:21;;;;;;;4.88;1.58;;;5.30;99.90;;;;;;20735427;28;20057;-43
2021/12/16 06:41:23;;;;;;;4.68;2.10;;;5.30;99.90;;;;;;20735069;28;20528;-43
2021/12/16 06:51:37;;;;;;;6.57;2.30;;;5.20;99.90;;;;;;20740322;28;20044;-43
2021/12/16 07:01:41;;;;;;;4.00;1.58;;;5.20;99.90;;;;;;20738957;28;20044;-44
2021/12/16 07:11:47;;;;;;;4.13;1.73;;;5.10;99.90;;;;;;20725940;28;20071;-43
2021/12/16 07:21:49;;;;;;;9.52;2.33;;;5.10;99.90;;;;;;20722173;28;20042;-43
2021/12/16 07:31:51;;;;;;;5.43;2.15;;;5.10;99.90;;;;;;20725485;28;20048;-43
2021/12/16 07:41:54;;;;;;;6.45;2.00;;;5.10;99.90;;;;;;20726021;28;20690;-44
2021/12/16 07:51:57;;;;;;;5.35;2.15;;;5.00;99.90;;;;;;20712780;28;20038;-43
2021/12/16 08:01:59;;;;;;;4.90;1.83;;;5.00;99.90;;;;;;20723715;28;20038;-43
2021/12/16 08:12:00;;;;;;;4.53;2.30;;;5.00;99.90;;;;;;20728404;28;20041;-43
2021/12/16 08:22:02;;;;;;;4.90;2.10;;;5.00;99.90;;;;;;20724758;28;20482;-43
2021/12/16 08:32:05;;;;;;;4.68;2.25;;;5.10;99.90;;;;;;20727035;28;20041;-43
2021/12/16 08:42:09;;;;;;;5.88;2.67;;;5.10;99.90;;;;;;20735975;28;20030;-44
2021/12/16 08:52:17;;;;;;;6.80;2.53;;;5.20;99.90;;;;;;20687388;28;20091;-43
2021/12/16 09:02:19;;;;;;;5.03;2.25;;;5.30;99.90;;;;;;20733000;28;20121;-43
2021/12/16 09:22:37;;;;;;;9.95;3.80;;;5.70;99.90;;;;;;20733640;28;20152;-44
2021/12/16 09:32:39;;;;;;;8.05;2.92;;;6.10;99.90;;;;;;20725412;28;20053;-44
2021/12/16 09:42:40;;;;;;;4.88;2.35;;;6.50;99.90;;;;;;20735210;28;20037;-43
2021/12/16 09:52:41;;;;;;;6.20;2.85;;;6.90;99.90;;;;;;20735294;28;20048;-44
2021/12/16 10:02:43;;;;;;;9.63;3.28;;;7.40;99.90;;;;;;20733227;28;20034;-44
2021/12/16 10:12:47;;;;;;;10.57;3.47;;;8.00;99.90;;;;;;20728666;28;20484;-44
2021/12/16 10:22:50;;;;;;;9.32;3.78;;;8.40;99.90;;;;;;20747534;28;20891;-44
2021/12/16 10:32:53;;;;;;;14.23;4.60;;;8.80;99.90;;;;;;20736471;28;20442;-44
2021/12/16 10:42:57;;;;;;;16.10;4.95;;;9.20;99.90;;;;;;20741330;28;20034;-44
2021/12/16 10:52:58;;;;;;;11.55;3.83;;;9.80;99.90;;;;;;20744486;28;20037;-44
2021/12/16 11:02:59;;;;;;;12.00;5.18;;;10.40;99.90;;;;;;20735530;28;20037;-44
2021/12/16 11:13:04;;;;;;;10.48;4.00;;;11.10;99.90;;;;;;20733605;28;20049;-44
2021/12/16 11:23:11;;;;;;;9.05;3.80;;;11.60;99.90;;;;;;20727825;28;20026;-44
2021/12/16 11:33:21;;;;;;;9.05;3.95;;;12.20;99.90;;;;;;20736109;28;20052;-44
2021/12/16 11:43:43;;;;;;;8.80;3.13;;;12.90;99.90;;;;;;20734569;28;20502;-44
2021/12/16 11:53:57;;;;;;;14.40;3.53;;;13.40;99.90;;;;;;20736941;28;20457;-44
2021/12/16 12:04:04;;;;;;;8.27;3.85;;;13.20;99.90;;;;;;20727052;28;20326;-44
2021/12/16 12:14:10;;;;;;;8.25;4.30;;;12.70;99.90;;;;;;20731189;28;20057;-44
2021/12/16 12:24:18;;;;;;;10.38;4.03;;;12.50;99.90;;;;;;20724228;28;20979;-44
2021/12/16 12:34:21;;;;;;;8.30;3.40;;;13.20;99.90;;;;;;20729229;28;20044;-44
2021/12/16 12:44:23;;;;;;;8.77;3.53;;;13.80;99.90;;;;;;20723260;28;20087;-44
2021/12/16 12:54:31;;;;;;;8.63;3.63;;;14.00;99.90;;;;;;20718794;28;20042;-44
2021/12/16 13:04:56;;;;;;;9.52;3.20;;;13.80;99.90;;;;;;20734449;28;20513;-44
2021/12/16 13:15:09;;;;;;;9.70;3.38;;;13.70;99.90;;;;;;20736096;28;20129;-44
2021/12/16 13:35:35;;;;;;;11.88;3.72;;;12.80;99.90;;;;;;20729563;28;20038;-44
2021/12/16 13:45:45;;;;;;;13.77;5.25;;;12.30;99.90;;;;;;20732411;28;20042;-44
2021/12/16 14:06:21;;;;;;;8.65;3.00;;;11.90;99.90;;;;;;20737768;28;21455;-44
2021/12/16 14:16:38;;;;;;;8.18;3.42;;;11.80;99.90;;;;;;20729735;28;20050;-44
2021/12/16 14:26:55;;;;;;;15.73;3.63;;;11.50;99.90;;;;;;20742054;28;20533;-44
2021/12/16 14:57:36;;;;;;;10.02;4.10;;;10.90;99.90;;;;;;20655853;28;20038;-44
2021/12/16 15:07:37;;;;;;;6.93;3.15;;;10.60;99.90;;;;;;20659257;28;20037;-44
2021/12/16 15:38:45;;;;;;;13.05;3.17;;;9.90;99.90;;;;;;20737205;28;20040;-44
2021/12/16 15:48:49;;;;;;;9.80;3.15;;;9.60;99.90;;;;;;20731600;28;20075;-44
2021/12/16 15:58:58;;;;;;;6.43;2.95;;;9.40;99.90;;;;;;20715973;28;20993;-44
2021/12/16 16:09:10;;;;;;;8.00;3.35;;;9.10;99.90;;;;;;20744625;28;20538;-44
2021/12/16 16:19:16;;;;;;;10.02;3.03;;;8.90;99.90;;;;;;20739565;28;20593;-44
2021/12/16 16:29:20;;;;;;;6.30;3.63;;;8.70;99.90;;;;;;20738550;28;20048;-44
2021/12/16 16:39:27;;;;;;;8.40;3.92;;;8.50;99.90;;;;;;20728121;28;20033;-44
2021/12/16 16:49:49;;;;;;;6.20;3.45;;;8.40;99.90;;;;;;20739884;28;20041;-44
2021/12/16 16:59:53;;;;;;;7.45;3.33;;;8.30;99.90;;;;;;20733961;28;20493;-44
2021/12/16 17:09:54;;;;;;;7.50;2.55;;;8.20;99.90;;;;;;20726022;28;20754;-44
2021/12/16 17:20:07;;;;;;;9.52;3.63;;;8.00;99.90;;;;;;20720969;28;20041;-44
2021/12/16 17:30:20;;;;;;;10.50;3.60;;;7.90;99.90;;;;;;20724698;28;20042;-44
2021/12/16 17:40:29;;;;;;;6.20;2.90;;;7.80;99.90;;;;;;20730175;28;20449;-44
2021/12/16 17:50:36;;;;;;;8.18;3.60;;;7.70;99.90;;;;;;20733784;28;20543;-44
2021/12/16 18:00:46;;;;;;;5.67;4.07;;;7.60;99.90;;;;;;20733411;28;20044;-44
2021/12/16 18:10:47;;;;;;;6.78;3.15;;;7.50;99.90;;;;;;20727636;28;20088;-44
2021/12/16 18:20:50;;;;;;;6.07;3.00;;;7.30;99.90;;;;;;20712904;28;20065;-44
2021/12/16 18:31:03;;;;;;;7.07;3.00;;;7.30;99.90;;;;;;20691939;28;20037;-44
2021/12/16 18:41:07;;;;;;;9.13;3.55;;;7.30;99.90;;;;;;20753077;28;20049;-44
2021/12/16 19:01:21;;;;;;;13.18;4.65;;;7.30;99.90;;;;;;20741677;28;20037;-44
2021/12/16 19:11:25;;;;;;;10.65;3.58;;;7.20;99.90;;;;;;20742938;28;20046;-44
2021/12/16 19:21:26;;;;;;;12.10;4.72;;;7.20;99.90;;;;;;20734662;28;20034;-43
2021/12/16 19:31:28;;;;;;;9.20;4.88;;;7.30;99.90;;;;;;20711639;28;20042;-44
2021/12/16 19:41:31;;;;;;;11.00;4.30;;;7.20;99.90;;;;;;20755518;28;20160;-44
2021/12/16 19:51:32;;;;;;;8.57;4.38;;;7.20;99.90;;;;;;20749092;28;20041;-44
2021/12/16 20:01:36;;;;;;;10.57;4.25;;;7.20;99.90;;;;;;20759591;28;20501;-44
2021/12/16 20:11:42;;;;;;;6.25;3.75;;;7.20;99.90;;;;;;20743220;28;20077;-44
2021/12/16 20:21:50;;;;;;;6.53;3.92;;;7.10;99.90;;;;;;20755547;28;20041;-44
2021/12/16 20:31:59;;;;;;;6.43;2.90;;;7.10;99.90;;;;;;20748943;28;20451;-44
2021/12/16 20:42:28;;;;;;;9.27;4.35;;;7.10;99.90;;;;;;20746605;28;20133;-44
2021/12/16 20:52:32;;;;;;;7.88;3.42;;;7.00;99.90;;;;;;20744694;28;20037;-44
2021/12/16 21:02:35;;;;;;;9.32;4.50;;;7.10;99.90;;;;;;20746339;28;20397;-44
2021/12/16 21:12:36;;;;;;;10.13;4.45;;;7.00;99.90;;;;;;20745285;28;20053;-46
2021/12/16 21:22:38;;;;;;;11.82;3.63;;;7.00;99.90;;;;;;20748967;28;20037;-44
2021/12/16 21:32:39;;;;;;;6.47;2.95;;;6.90;99.90;;;;;;20738317;28;20045;-43
2021/12/16 21:42:42;;;;;;;4.38;1.95;;;6.90;99.90;;;;;;20731812;28;20044;-44
2021/12/16 21:52:44;;;;;;;7.13;3.08;;;7.00;99.90;;;;;;20735145;28;20046;-44
2021/12/16 22:02:45;;;;;;;6.82;2.90;;;7.10;99.90;;;;;;20742501;28;20541;-44
2021/12/16 22:12:48;;;;;;;10.68;3.25;;;7.20;99.90;;;;;;20761616;28;20048;-44
2021/12/16 22:22:51;;;;;;;7.70;3.03;;;7.10;99.90;;;;;;20756092;28;20041;-44
2021/12/16 22:32:54;;;;;;;4.90;2.30;;;7.10;99.90;;;;;;20749261;28;20133;-44
2021/12/16 22:42:56;;;;;;;7.50;3.10;;;7.00;99.90;;;;;;20752042;28;20041;-44
2021/12/16 22:52:58;;;;;;;7.40;2.92;;;7.10;99.90;;;;;;20739898;28;20041;-44
2021/12/16 23:03:00;;;;;;;10.35;3.25;;;7.20;99.90;;;;;;20752111;28;20486;-44
2021/12/16 23:13:04;;;;;;;8.35;3.05;;;7.20;99.90;;;;;;20752309;28;20103;-44
2021/12/16 23:23:05;;;;;;;7.70;3.30;;;7.30;99.90;;;;;;20752381;28;20137;-44
2021/12/16 23:33:07;;;;;;;9.70;2.67;;;7.30;99.90;;;;;;20764744;28;20401;-44
2021/12/16 23:53:21;;;;;;;7.23;3.07;;;7.30;99.90;;;;;;20753038;28;20042;-45
